Weather at Exeter International Airport

Public forecast

Using degrees Celsius for public forecast. Weather courtesy of forecast.io.

Current aviation weather report (METAR) for Exeter International Airport

2024/05/29 16:50 (retrieved 17 minutes ago)

EGTE 291650Z 30010KT 280V340 9999 FEW030 BKN044 16/10 Q1011

Closest aviation forecast (TAF) to Exeter International Airport

Closest forecast is Cardiff International Airport, 39.9 nm (73.8 km) N.

2024/05/29 12:00 (retrieved 5 hours ago)

TAF EGFF 291055Z 2912/3012 26012KT 9999 BKN040 PROB30 TEMPO 2912/2919 7000 SHRA BECMG 3005/3008 34012KT PROB30 TEMPO 3005/3008 3000 +SHRA BKN014CB